sensor_id;sensor_type;location;lat;lon;timestamp;pressure;altitude;pressure_sealevel;temperature;humidity
14790;BME280;7486;51.010;10.366;2022-10-16T00:00:53;97941.47;;;12.96;78.16
14790;BME280;7486;51.010;10.366;2022-10-16T00:03:20;97938.56;;;12.86;78.47
14790;BME280;7486;51.010;10.366;2022-10-16T00:05:53;97948.16;;;12.87;78.39
14790;BME280;7486;51.010;10.366;2022-10-16T00:08:20;97944.97;;;12.66;78.43
14790;BME280;7486;51.010;10.366;2022-10-16T00:10:47;97948.56;;;12.72;78.86
14790;BME280;7486;51.010;10.366;2022-10-16T00:13:13;97946.28;;;12.76;78.49
14790;BME280;7486;51.010;10.366;2022-10-16T00:15:40;97941.88;;;12.69;78.47
14790;BME280;7486;51.010;10.366;2022-10-16T00:18:07;97952.03;;;12.72;78.63
14790;BME280;7486;51.010;10.366;2022-10-16T00:20:34;97963.13;;;12.69;78.62
14790;BME280;7486;51.010;10.366;2022-10-16T00:23:01;97962.66;;;12.72;78.84
14790;BME280;7486;51.010;10.366;2022-10-16T00:25:27;97961.41;;;12.75;79.04
14790;BME280;7486;51.010;10.366;2022-10-16T00:27:54;97939.97;;;12.58;78.88
14790;BME280;7486;51.010;10.366;2022-10-16T00:30:21;97967.16;;;12.72;78.98
14790;BME280;7486;51.010;10.366;2022-10-16T00:32:47;97976.53;;;12.74;79.14
14790;BME280;7486;51.010;10.366;2022-10-16T00:35:14;97976.06;;;12.78;79.37
14790;BME280;7486;51.010;10.366;2022-10-16T00:37:40;97977.16;;;12.58;80.73
14790;BME280;7486;51.010;10.366;2022-10-16T00:40:07;97965.78;;;12.51;81.62
14790;BME280;7486;51.010;10.366;2022-10-16T00:42:34;97973.38;;;12.48;82.55
14790;BME280;7486;51.010;10.366;2022-10-16T00:45:02;97982.47;;;12.58;82.93
14790;BME280;7486;51.010;10.366;2022-10-16T00:47:31;97972.50;;;12.54;83.28
14790;BME280;7486;51.010;10.366;2022-10-16T00:50:11;97978.81;;;12.59;84.27
14790;BME280;7486;51.010;10.366;2022-10-16T00:52:43;97976.25;;;12.64;83.82
14790;BME280;7486;51.010;10.366;2022-10-16T00:55:12;97971.09;;;12.51;84.30
14790;BME280;7486;51.010;10.366;2022-10-16T00:57:39;97969.34;;;12.63;83.88
14790;BME280;7486;51.010;10.366;2022-10-16T01:00:08;97956.19;;;12.68;83.53
14790;BME280;7486;51.010;10.366;2022-10-16T01:02:35;97955.63;;;12.78;83.39
14790;BME280;7486;51.010;10.366;2022-10-16T01:05:03;97971.13;;;12.81;82.67
14790;BME280;7486;51.010;10.366;2022-10-16T01:10:34;97978.72;;;12.78;82.97
14790;BME280;7486;51.010;10.366;2022-10-16T01:13:41;97983.56;;;12.69;83.50
14790;BME280;7486;51.010;10.366;2022-10-16T01:16:21;97971.81;;;12.77;83.10
14790;BME280;7486;51.010;10.366;2022-10-16T01:18:58;97973.50;;;12.59;84.15
14790;BME280;7486;51.010;10.366;2022-10-16T01:21:36;97969.09;;;12.47;85.22
14790;BME280;7486;51.010;10.366;2022-10-16T01:29:54;97993.53;;;12.55;84.66
14790;BME280;7486;51.010;10.366;2022-10-16T01:32:33;97992.44;;;12.63;84.26
14790;BME280;7486;51.010;10.366;2022-10-16T01:40:45;98009.63;;;12.60;82.19
14790;BME280;7486;51.010;10.366;2022-10-16T01:43:17;98006.19;;;12.60;82.96
14790;BME280;7486;51.010;10.366;2022-10-16T01:45:45;98015.00;;;12.72;82.21
14790;BME280;7486;51.010;10.366;2022-10-16T01:48:16;98004.25;;;12.67;81.63
14790;BME280;7486;51.010;10.366;2022-10-16T01:50:55;98011.78;;;12.70;81.79
14790;BME280;7486;51.010;10.366;2022-10-16T01:53:24;98025.53;;;12.79;81.29
14790;BME280;7486;51.010;10.366;2022-10-16T01:55:54;98016.66;;;12.85;80.60
14790;BME280;7486;51.010;10.366;2022-10-16T01:58:23;98010.19;;;12.81;80.25
14790;BME280;7486;51.010;10.366;2022-10-16T02:00:52;98003.34;;;12.55;80.86
14790;BME280;7486;51.010;10.366;2022-10-16T02:03:22;97973.19;;;12.13;81.83
14790;BME280;7486;51.010;10.366;2022-10-16T02:05:52;98016.56;;;12.43;81.65
14790;BME280;7486;51.010;10.366;2022-10-16T02:08:22;98007.47;;;12.51;81.13
14790;BME280;7486;51.010;10.366;2022-10-16T02:10:50;98006.44;;;12.34;80.92
14790;BME280;7486;51.010;10.366;2022-10-16T02:13:22;98008.09;;;12.35;81.14
14790;BME280;7486;51.010;10.366;2022-10-16T02:15:50;98002.25;;;12.26;81.08
14790;BME280;7486;51.010;10.366;2022-10-16T02:18:20;98010.69;;;12.05;82.23
14790;BME280;7486;51.010;10.366;2022-10-16T02:21:23;97999.00;;;12.06;82.34
14790;BME280;7486;51.010;10.366;2022-10-16T02:26:43;98019.38;;;12.12;82.36
14790;BME280;7486;51.010;10.366;2022-10-16T02:29:16;97982.25;;;11.69;84.04
14790;BME280;7486;51.010;10.366;2022-10-16T02:31:50;98033.88;;;12.09;83.36
14790;BME280;7486;51.010;10.366;2022-10-16T02:34:20;98023.72;;;12.06;83.33
14790;BME280;7486;51.010;10.366;2022-10-16T02:36:49;98026.28;;;12.13;82.87
14790;BME280;7486;51.010;10.366;2022-10-16T02:39:18;97990.59;;;11.91;82.69
14790;BME280;7486;51.010;10.366;2022-10-16T02:41:45;98009.19;;;12.09;83.44
14790;BME280;7486;51.010;10.366;2022-10-16T02:44:11;98014.16;;;12.05;83.03
14790;BME280;7486;51.010;10.366;2022-10-16T02:46:38;98016.03;;;12.16;83.01
14790;BME280;7486;51.010;10.366;2022-10-16T02:49:05;98013.56;;;12.21;82.76
14790;BME280;7486;51.010;10.366;2022-10-16T02:51:31;97997.34;;;12.11;82.17
14790;BME280;7486;51.010;10.366;2022-10-16T02:53:58;98004.69;;;12.09;82.67
14790;BME280;7486;51.010;10.366;2022-10-16T02:56:24;98007.94;;;12.11;82.31
14790;BME280;7486;51.010;10.366;2022-10-16T02:58:51;98015.22;;;12.16;81.65
14790;BME280;7486;51.010;10.366;2022-10-16T03:01:17;98002.94;;;12.21;81.47
14790;BME280;7486;51.010;10.366;2022-10-16T03:03:44;98009.31;;;11.96;82.28
14790;BME280;7486;51.010;10.366;2022-10-16T03:06:11;97996.44;;;11.99;82.55
14790;BME280;7486;51.010;10.366;2022-10-16T03:08:37;97992.56;;;11.95;82.52
14790;BME280;7486;51.010;10.366;2022-10-16T03:11:04;98004.00;;;11.96;82.39
14790;BME280;7486;51.010;10.366;2022-10-16T03:13:31;98010.00;;;12.09;82.68
14790;BME280;7486;51.010;10.366;2022-10-16T03:15:57;98007.03;;;11.99;82.17
14790;BME280;7486;51.010;10.366;2022-10-16T03:18:24;98009.63;;;12.06;82.34
14790;BME280;7486;51.010;10.366;2022-10-16T03:20:51;98028.28;;;12.17;81.74
14790;BME280;7486;51.010;10.366;2022-10-16T03:23:17;98029.03;;;12.24;81.25
14790;BME280;7486;51.010;10.366;2022-10-16T03:25:44;98031.47;;;12.26;80.70
14790;BME280;7486;51.010;10.366;2022-10-16T03:28:13;98024.81;;;12.17;80.82
14790;BME280;7486;51.010;10.366;2022-10-16T03:30:40;98017.50;;;12.12;81.64
14790;BME280;7486;51.010;10.366;2022-10-16T03:33:07;98023.34;;;12.21;81.15
14790;BME280;7486;51.010;10.366;2022-10-16T03:35:33;98020.91;;;12.19;80.82
14790;BME280;7486;51.010;10.366;2022-10-16T03:38:00;98002.84;;;11.92;81.81
14790;BME280;7486;51.010;10.366;2022-10-16T03:40:26;98030.38;;;12.15;81.48
14790;BME280;7486;51.010;10.366;2022-10-16T03:42:53;98029.94;;;12.18;80.81
14790;BME280;7486;51.010;10.366;2022-10-16T03:45:20;98026.16;;;12.08;81.81
14790;BME280;7486;51.010;10.366;2022-10-16T03:47:47;98023.19;;;12.16;81.42
14790;BME280;7486;51.010;10.366;2022-10-16T03:50:13;98036.84;;;12.19;81.18
14790;BME280;7486;51.010;10.366;2022-10-16T03:52:40;98032.88;;;12.29;80.81
14790;BME280;7486;51.010;10.366;2022-10-16T03:55:07;98019.00;;;12.27;80.12
14790;BME280;7486;51.010;10.366;2022-10-16T03:57:34;98030.16;;;12.35;79.89
14790;BME280;7486;51.010;10.366;2022-10-16T04:00:00;98037.75;;;12.32;80.42
14790;BME280;7486;51.010;10.366;2022-10-16T04:02:37;98053.03;;;12.36;79.85
14790;BME280;7486;51.010;10.366;2022-10-16T04:05:04;98048.13;;;12.33;79.96
14790;BME280;7486;51.010;10.366;2022-10-16T04:07:30;98057.06;;;12.20;80.61
14790;BME280;7486;51.010;10.366;2022-10-16T04:09:57;98055.53;;;12.31;80.62
14790;BME280;7486;51.010;10.366;2022-10-16T04:12:24;98060.47;;;12.28;80.70
14790;BME280;7486;51.010;10.366;2022-10-16T04:14:51;98057.16;;;12.32;80.64
14790;BME280;7486;51.010;10.366;2022-10-16T04:17:18;98053.44;;;12.33;80.34
14790;BME280;7486;51.010;10.366;2022-10-16T04:19:44;98063.22;;;12.39;80.18
14790;BME280;7486;51.010;10.366;2022-10-16T04:22:11;98057.28;;;12.37;79.94
14790;BME280;7486;51.010;10.366;2022-10-16T04:24:38;98066.88;;;12.38;80.01
14790;BME280;7486;51.010;10.366;2022-10-16T04:27:04;98069.75;;;12.37;79.82
14790;BME280;7486;51.010;10.366;2022-10-16T04:29:31;98077.06;;;12.41;79.85
14790;BME280;7486;51.010;10.366;2022-10-16T04:31:58;98080.53;;;12.42;79.68
14790;BME280;7486;51.010;10.366;2022-10-16T04:34:24;98091.25;;;12.35;79.96
14790;BME280;7486;51.010;10.366;2022-10-16T04:36:51;98098.75;;;12.38;80.07
14790;BME280;7486;51.010;10.366;2022-10-16T04:39:17;98104.50;;;12.35;80.31
14790;BME280;7486;51.010;10.366;2022-10-16T04:41:44;98108.06;;;12.29;80.65
14790;BME280;7486;51.010;10.366;2022-10-16T04:44:11;98101.03;;;12.35;80.73
14790;BME280;7486;51.010;10.366;2022-10-16T04:46:37;98098.19;;;12.36;80.77
14790;BME280;7486;51.010;10.366;2022-10-16T04:49:04;98108.13;;;12.41;80.50
14790;BME280;7486;51.010;10.366;2022-10-16T04:51:31;98085.69;;;12.18;80.40
14790;BME280;7486;51.010;10.366;2022-10-16T04:53:57;98111.88;;;12.33;81.13
14790;BME280;7486;51.010;10.366;2022-10-16T04:56:24;98117.13;;;12.40;81.07
14790;BME280;7486;51.010;10.366;2022-10-16T04:58:50;98122.66;;;12.38;81.20
14790;BME280;7486;51.010;10.366;2022-10-16T05:01:17;98123.56;;;12.32;81.40
14790;BME280;7486;51.010;10.366;2022-10-16T05:03:44;98120.28;;;12.30;82.01
14790;BME280;7486;51.010;10.366;2022-10-16T05:06:10;98124.19;;;12.28;82.83
14790;BME280;7486;51.010;10.366;2022-10-16T05:08:37;98123.56;;;12.32;82.60
14790;BME280;7486;51.010;10.366;2022-10-16T05:11:03;98120.44;;;12.35;82.38
14790;BME280;7486;51.010;10.366;2022-10-16T05:13:30;98129.06;;;12.31;82.46
14790;BME280;7486;51.010;10.366;2022-10-16T05:15:57;98127.78;;;12.15;83.65
14790;BME280;7486;51.010;10.366;2022-10-16T05:18:23;98134.81;;;12.28;83.61
14790;BME280;7486;51.010;10.366;2022-10-16T05:20:50;98137.19;;;12.36;83.25
14790;BME280;7486;51.010;10.366;2022-10-16T05:23:16;98143.44;;;12.23;83.81
14790;BME280;7486;51.010;10.366;2022-10-16T05:25:43;98122.63;;;12.20;84.60
14790;BME280;7486;51.010;10.366;2022-10-16T05:28:09;98106.06;;;12.00;85.46
14790;BME280;7486;51.010;10.366;2022-10-16T05:30:37;98057.09;;;11.96;85.39
14790;BME280;7486;51.010;10.366;2022-10-16T05:33:04;98049.56;;;11.93;85.44
14790;BME280;7486;51.010;10.366;2022-10-16T05:35:30;98054.63;;;12.01;85.49
14790;BME280;7486;51.010;10.366;2022-10-16T05:37:57;98051.78;;;11.96;85.85
14790;BME280;7486;51.010;10.366;2022-10-16T05:40:23;98059.41;;;11.67;87.73
14790;BME280;7486;51.010;10.366;2022-10-16T05:42:54;98082.75;;;11.84;87.97
14790;BME280;7486;51.010;10.366;2022-10-16T05:45:21;98098.75;;;11.95;86.77
14790;BME280;7486;51.010;10.366;2022-10-16T05:47:47;98101.94;;;12.04;86.20
14790;BME280;7486;51.010;10.366;2022-10-16T05:50:14;98100.50;;;12.08;85.44
14790;BME280;7486;51.010;10.366;2022-10-16T05:52:41;98102.84;;;11.98;85.58
14790;BME280;7486;51.010;10.366;2022-10-16T05:55:08;98101.94;;;12.04;85.28
14790;BME280;7486;51.010;10.366;2022-10-16T05:57:34;98096.56;;;11.67;86.48
14790;BME280;7486;51.010;10.366;2022-10-16T06:00:01;98098.25;;;11.55;87.27
14790;BME280;7486;51.010;10.366;2022-10-16T06:02:38;98114.00;;;11.50;88.53
14790;BME280;7486;51.010;10.366;2022-10-16T06:05:05;98114.78;;;11.57;87.86
14790;BME280;7486;51.010;10.366;2022-10-16T06:07:34;98114.31;;;11.29;88.44
14790;BME280;7486;51.010;10.366;2022-10-16T06:10:02;98113.66;;;11.40;89.20
14790;BME280;7486;51.010;10.366;2022-10-16T06:12:29;98115.41;;;11.53;88.14
14790;BME280;7486;51.010;10.366;2022-10-16T06:14:56;98123.84;;;11.75;86.92
14790;BME280;7486;51.010;10.366;2022-10-16T06:17:22;98116.22;;;11.85;85.73
14790;BME280;7486;51.010;10.366;2022-10-16T06:19:49;98117.34;;;11.70;85.16
14790;BME280;7486;51.010;10.366;2022-10-16T06:22:16;98127.91;;;11.77;85.59
14790;BME280;7486;51.010;10.366;2022-10-16T06:24:42;98130.66;;;11.64;85.60
14790;BME280;7486;51.010;10.366;2022-10-16T06:27:09;98142.97;;;11.83;85.15
14790;BME280;7486;51.010;10.366;2022-10-16T06:29:35;98139.22;;;11.91;84.11
14790;BME280;7486;51.010;10.366;2022-10-16T06:32:02;98148.16;;;11.96;83.99
14790;BME280;7486;51.010;10.366;2022-10-16T06:34:29;98152.25;;;11.92;84.79
14790;BME280;7486;51.010;10.366;2022-10-16T06:36:55;98150.94;;;12.08;84.16
14790;BME280;7486;51.010;10.366;2022-10-16T06:39:22;98161.22;;;11.98;83.86
14790;BME280;7486;51.010;10.366;2022-10-16T06:41:49;98157.03;;;11.84;85.85
14790;BME280;7486;51.010;10.366;2022-10-16T06:44:15;98151.81;;;12.02;85.75
14790;BME280;7486;51.010;10.366;2022-10-16T06:46:45;98125.84;;;12.04;84.97
14790;BME280;7486;51.010;10.366;2022-10-16T06:49:12;98146.19;;;12.35;84.41
14790;BME280;7486;51.010;10.366;2022-10-16T06:51:38;98147.47;;;12.50;83.60
14790;BME280;7486;51.010;10.366;2022-10-16T06:54:08;98160.31;;;12.53;82.94
14790;BME280;7486;51.010;10.366;2022-10-16T06:56:35;98153.53;;;12.57;82.79
14790;BME280;7486;51.010;10.366;2022-10-16T06:59:02;98153.53;;;12.57;82.88
14790;BME280;7486;51.010;10.366;2022-10-16T07:01:29;98146.75;;;12.61;82.54
14790;BME280;7486;51.010;10.366;2022-10-16T07:03:56;98148.66;;;12.54;82.18
14790;BME280;7486;51.010;10.366;2022-10-16T07:06:24;98126.84;;;12.28;82.47
14790;BME280;7486;51.010;10.366;2022-10-16T07:08:52;98171.59;;;12.49;83.36
14790;BME280;7486;51.010;10.366;2022-10-16T07:11:22;98178.22;;;12.40;83.76
14790;BME280;7486;51.010;10.366;2022-10-16T07:13:50;98185.38;;;12.39;83.55
14790;BME280;7486;51.010;10.366;2022-10-16T07:16:30;98201.25;;;12.46;83.65
14790;BME280;7486;51.010;10.366;2022-10-16T07:18:59;98211.78;;;12.59;82.94
14790;BME280;7486;51.010;10.366;2022-10-16T07:21:29;98209.28;;;12.64;83.11
14790;BME280;7486;51.010;10.366;2022-10-16T07:23:58;98207.50;;;12.58;82.47
14790;BME280;7486;51.010;10.366;2022-10-16T07:26:27;98187.75;;;12.47;82.43
14790;BME280;7486;51.010;10.366;2022-10-16T07:28:54;98225.19;;;12.70;82.18
14790;BME280;7486;51.010;10.366;2022-10-16T07:31:22;98215.66;;;12.81;81.75
14790;BME280;7486;51.010;10.366;2022-10-16T07:33:50;98216.94;;;12.97;81.11
14790;BME280;7486;51.010;10.366;2022-10-16T07:36:18;98219.13;;;13.00;80.95
14790;BME280;7486;51.010;10.366;2022-10-16T07:38:45;98235.09;;;13.18;80.22
14790;BME280;7486;51.010;10.366;2022-10-16T07:41:15;98234.19;;;13.06;79.94
14790;BME280;7486;51.010;10.366;2022-10-16T07:43:52;98236.13;;;13.17;79.74
14790;BME280;7486;51.010;10.366;2022-10-16T07:46:21;98247.88;;;13.28;79.01
14790;BME280;7486;51.010;10.366;2022-10-16T07:48:48;98268.72;;;13.31;78.44
14790;BME280;7486;51.010;10.366;2022-10-16T07:51:20;98264.22;;;13.31;79.22
14790;BME280;7486;51.010;10.366;2022-10-16T07:53:47;98259.91;;;13.12;79.31
14790;BME280;7486;51.010;10.366;2022-10-16T07:56:15;98269.81;;;13.23;79.61
14790;BME280;7486;51.010;10.366;2022-10-16T07:58:42;98269.16;;;13.28;79.42
14790;BME280;7486;51.010;10.366;2022-10-16T08:01:12;98263.47;;;13.42;79.16
14790;BME280;7486;51.010;10.366;2022-10-16T08:03:42;98264.50;;;13.41;78.64
14790;BME280;7486;51.010;10.366;2022-10-16T08:06:09;98262.56;;;13.30;79.46
14790;BME280;7486;51.010;10.366;2022-10-16T08:08:36;98273.13;;;13.37;79.53
14790;BME280;7486;51.010;10.366;2022-10-16T08:11:02;98268.19;;;13.40;79.22
14790;BME280;7486;51.010;10.366;2022-10-16T08:13:30;98273.50;;;13.40;79.11
14790;BME280;7486;51.010;10.366;2022-10-16T08:15:57;98276.25;;;13.34;79.03
14790;BME280;7486;51.010;10.366;2022-10-16T08:18:24;98282.81;;;13.49;78.92
14790;BME280;7486;51.010;10.366;2022-10-16T08:20:58;98283.19;;;13.53;78.64
14790;BME280;7486;51.010;10.366;2022-10-16T08:23:26;98297.59;;;13.45;79.04
14790;BME280;7486;51.010;10.366;2022-10-16T08:25:54;98255.63;;;13.11;79.49
14790;BME280;7486;51.010;10.366;2022-10-16T08:28:22;98282.31;;;13.59;78.80
14790;BME280;7486;51.010;10.366;2022-10-16T08:30:49;98284.38;;;13.75;78.01
14790;BME280;7486;51.010;10.366;2022-10-16T08:33:15;98292.34;;;13.75;78.06
14790;BME280;7486;51.010;10.366;2022-10-16T08:35:42;98285.75;;;13.78;77.79
14790;BME280;7486;51.010;10.366;2022-10-16T08:38:09;98292.00;;;13.71;78.47
14790;BME280;7486;51.010;10.366;2022-10-16T08:40:37;98297.69;;;13.75;78.25
14790;BME280;7486;51.010;10.366;2022-10-16T08:46:30;98309.31;;;13.62;79.13
14790;BME280;7486;51.010;10.366;2022-10-16T08:49:02;98311.44;;;13.72;79.51
14790;BME280;7486;51.010;10.366;2022-10-16T08:51:31;98317.13;;;13.76;78.97
14790;BME280;7486;51.010;10.366;2022-10-16T08:54:02;98314.00;;;13.79;78.99
14790;BME280;7486;51.010;10.366;2022-10-16T08:56:30;98307.66;;;13.61;80.06
14790;BME280;7486;51.010;10.366;2022-10-16T08:58:58;98312.41;;;13.59;80.46
14790;BME280;7486;51.010;10.366;2022-10-16T09:01:38;98316.53;;;13.37;81.94
14790;BME280;7486;51.010;10.366;2022-10-16T09:13:02;98351.16;;;13.55;83.68
14790;BME280;7486;51.010;10.366;2022-10-16T09:15:39;98349.50;;;13.54;83.68
14790;BME280;7486;51.010;10.366;2022-10-16T09:18:19;98355.69;;;13.48;83.94
14790;BME280;7486;51.010;10.366;2022-10-16T09:23:35;98345.94;;;13.42;83.47
14790;BME280;7486;51.010;10.366;2022-10-16T09:26:03;98342.59;;;13.47;84.36
14790;BME280;7486;51.010;10.366;2022-10-16T09:28:31;98356.41;;;13.80;83.00
14790;BME280;7486;51.010;10.366;2022-10-16T09:30:57;98350.28;;;13.91;82.91
14790;BME280;7486;51.010;10.366;2022-10-16T09:33:29;98351.84;;;13.99;82.71
14790;BME280;7486;51.010;10.366;2022-10-16T09:35:57;98357.34;;;14.15;83.04
14790;BME280;7486;51.010;10.366;2022-10-16T09:38:31;98366.91;;;14.23;81.78
14790;BME280;7486;51.010;10.366;2022-10-16T09:41:04;98369.56;;;14.41;81.00
14790;BME280;7486;51.010;10.366;2022-10-16T09:43:47;98361.47;;;14.00;81.53
14790;BME280;7486;51.010;10.366;2022-10-16T09:48:54;98345.50;;;14.00;82.28
14790;BME280;7486;51.010;10.366;2022-10-16T09:51:26;98375.91;;;13.92;82.12
14790;BME280;7486;51.010;10.366;2022-10-16T09:53:56;98369.47;;;14.00;82.34
14790;BME280;7486;51.010;10.366;2022-10-16T09:56:32;98376.63;;;14.17;82.27
14790;BME280;7486;51.010;10.366;2022-10-16T09:59:03;98376.63;;;14.17;82.63
14790;BME280;7486;51.010;10.366;2022-10-16T10:01:37;98382.59;;;14.13;82.66
14790;BME280;7486;51.010;10.366;2022-10-16T10:04:05;98382.31;;;14.21;83.23
14790;BME280;7486;51.010;10.366;2022-10-16T10:06:35;98389.28;;;14.52;82.71
14790;BME280;7486;51.010;10.366;2022-10-16T10:12:00;98386.84;;;14.50;81.07
14790;BME280;7486;51.010;10.366;2022-10-16T10:14:36;98384.22;;;14.62;82.22
14790;BME280;7486;51.010;10.366;2022-10-16T10:17:25;98387.50;;;14.76;79.89
14790;BME280;7486;51.010;10.366;2022-10-16T10:20:00;98389.19;;;14.58;79.17
14790;BME280;7486;51.010;10.366;2022-10-16T10:22:42;98393.91;;;14.45;79.74
14790;BME280;7486;51.010;10.366;2022-10-16T10:30:29;98386.13;;;14.43;77.08
14790;BME280;7486;51.010;10.366;2022-10-16T10:38:31;98407.41;;;14.73;78.16
14790;BME280;7486;51.010;10.366;2022-10-16T10:50:02;98408.44;;;15.71;71.83
14790;BME280;7486;51.010;10.366;2022-10-16T10:52:42;98413.97;;;15.93;70.19
14790;BME280;7486;51.010;10.366;2022-10-16T10:58:06;98405.31;;;16.26;69.69
14790;BME280;7486;51.010;10.366;2022-10-16T11:03:31;98420.91;;;16.06;69.83
14790;BME280;7486;51.010;10.366;2022-10-16T11:06:05;98413.63;;;15.90;70.64
14790;BME280;7486;51.010;10.366;2022-10-16T11:08:41;98423.53;;;15.78;70.84
14790;BME280;7486;51.010;10.366;2022-10-16T11:11:16;98420.97;;;15.59;70.90
14790;BME280;7486;51.010;10.366;2022-10-16T11:16:32;98418.69;;;15.51;69.68
14790;BME280;7486;51.010;10.366;2022-10-16T11:21:48;98421.56;;;15.38;67.96
14790;BME280;7486;51.010;10.366;2022-10-16T11:24:22;98426.69;;;15.51;67.90
14790;BME280;7486;51.010;10.366;2022-10-16T11:26:52;98417.81;;;15.86;67.18
14790;BME280;7486;51.010;10.366;2022-10-16T11:29:28;98420.97;;;15.71;65.62
14790;BME280;7486;51.010;10.366;2022-10-16T11:32:10;98412.72;;;15.72;65.54
14790;BME280;7486;51.010;10.366;2022-10-16T11:34:49;98412.25;;;15.75;67.69
14790;BME280;7486;51.010;10.366;2022-10-16T11:37:24;98414.97;;;16.04;65.15
14790;BME280;7486;51.010;10.366;2022-10-16T11:39:54;98409.59;;;16.27;64.79
14790;BME280;7486;51.010;10.366;2022-10-16T11:43:12;98408.06;;;16.59;63.12
14790;BME280;7486;51.010;10.366;2022-10-16T11:45:46;98410.47;;;16.44;62.60
14790;BME280;7486;51.010;10.366;2022-10-16T11:50:54;98409.72;;;16.60;63.39
14790;BME280;7486;51.010;10.366;2022-10-16T11:53:46;98388.34;;;16.77;62.59
14790;BME280;7486;51.010;10.366;2022-10-16T11:56:20;98403.44;;;17.00;62.11
14790;BME280;7486;51.010;10.366;2022-10-16T12:01:21;98399.53;;;17.41;61.68
14790;BME280;7486;51.010;10.366;2022-10-16T12:04:02;98403.81;;;17.58;61.27
14790;BME280;7486;51.010;10.366;2022-10-16T12:06:39;98407.63;;;17.62;61.40
14790;BME280;7486;51.010;10.366;2022-10-16T12:09:16;98408.84;;;17.55;60.05
14790;BME280;7486;51.010;10.366;2022-10-16T12:11:46;98400.06;;;17.59;60.12
14790;BME280;7486;51.010;10.366;2022-10-16T12:16:53;98391.84;;;17.83;59.69
14790;BME280;7486;51.010;10.366;2022-10-16T12:19:22;98398.38;;;17.70;59.30
14790;BME280;7486;51.010;10.366;2022-10-16T12:21:51;98399.25;;;17.76;60.30
14790;BME280;7486;51.010;10.366;2022-10-16T12:26:53;98405.66;;;17.74;59.25
14790;BME280;7486;51.010;10.366;2022-10-16T12:29:41;98409.41;;;17.73;60.20
14790;BME280;7486;51.010;10.366;2022-10-16T12:32:41;98407.38;;;17.47;60.22
14790;BME280;7486;51.010;10.366;2022-10-16T12:35:30;98399.97;;;17.71;58.19
14790;BME280;7486;51.010;10.366;2022-10-16T12:38:14;98394.22;;;17.79;59.01
14790;BME280;7486;51.010;10.366;2022-10-16T12:40:43;98405.47;;;17.81;59.37
14790;BME280;7486;51.010;10.366;2022-10-16T12:43:13;98408.09;;;17.76;59.65
14790;BME280;7486;51.010;10.366;2022-10-16T12:48:31;98404.34;;;17.60;61.36
14790;BME280;7486;51.010;10.366;2022-10-16T12:54:13;98409.59;;;17.34;61.39
14790;BME280;7486;51.010;10.366;2022-10-16T13:00:04;98412.34;;;17.55;59.68
14790;BME280;7486;51.010;10.366;2022-10-16T13:02:49;98410.22;;;17.57;59.36
14790;BME280;7486;51.010;10.366;2022-10-16T13:05:26;98415.28;;;17.70;60.38
14790;BME280;7486;51.010;10.366;2022-10-16T13:10:59;98420.72;;;17.42;60.39
14790;BME280;7486;51.010;10.366;2022-10-16T13:22:00;98437.16;;;17.51;61.30
14790;BME280;7486;51.010;10.366;2022-10-16T13:24:46;98439.19;;;17.44;61.97
14790;BME280;7486;51.010;10.366;2022-10-16T13:30:08;98451.56;;;17.28;61.25
14790;BME280;7486;51.010;10.366;2022-10-16T13:32:38;98449.38;;;17.25;62.19
14790;BME280;7486;51.010;10.366;2022-10-16T13:35:22;98456.97;;;17.33;62.58
14790;BME280;7486;51.010;10.366;2022-10-16T13:37:50;98457.97;;;17.27;63.20
14790;BME280;7486;51.010;10.366;2022-10-16T13:40:23;98450.25;;;17.31;62.44
14790;BME280;7486;51.010;10.366;2022-10-16T13:42:51;98447.00;;;17.45;63.54
14790;BME280;7486;51.010;10.366;2022-10-16T13:45:22;98453.16;;;17.62;63.14
14790;BME280;7486;51.010;10.366;2022-10-16T13:47:49;98442.84;;;17.71;62.80
14790;BME280;7486;51.010;10.366;2022-10-16T13:50:17;98435.88;;;17.70;61.72
14790;BME280;7486;51.010;10.366;2022-10-16T13:52:44;98447.88;;;17.51;63.26
14790;BME280;7486;51.010;10.366;2022-10-16T13:55:12;98454.38;;;17.38;64.09
14790;BME280;7486;51.010;10.366;2022-10-16T13:57:39;98456.91;;;17.28;63.88
14790;BME280;7486;51.010;10.366;2022-10-16T14:00:20;98458.94;;;17.21;63.73
14790;BME280;7486;51.010;10.366;2022-10-16T14:02:55;98464.78;;;17.18;64.26
14790;BME280;7486;51.010;10.366;2022-10-16T14:05:23;98468.28;;;17.35;65.00
14790;BME280;7486;51.010;10.366;2022-10-16T14:07:51;98472.31;;;17.38;63.93
14790;BME280;7486;51.010;10.366;2022-10-16T14:10:30;98477.00;;;17.14;63.78
14790;BME280;7486;51.010;10.366;2022-10-16T14:13:02;98487.88;;;17.07;64.54
14790;BME280;7486;51.010;10.366;2022-10-16T14:15:34;98480.25;;;17.16;64.77
14790;BME280;7486;51.010;10.366;2022-10-16T14:18:02;98459.63;;;16.71;64.53
14790;BME280;7486;51.010;10.366;2022-10-16T14:20:32;98500.22;;;16.68;65.23
14790;BME280;7486;51.010;10.366;2022-10-16T14:23:20;98499.66;;;16.66;65.19
14790;BME280;7486;51.010;10.366;2022-10-16T14:25:48;98493.16;;;16.62;65.13
14790;BME280;7486;51.010;10.366;2022-10-16T14:28:22;98507.91;;;16.65;65.70
14790;BME280;7486;51.010;10.366;2022-10-16T14:30:56;98488.91;;;16.50;66.20
14790;BME280;7486;51.010;10.366;2022-10-16T14:36:11;98497.56;;;16.68;66.42
14790;BME280;7486;51.010;10.366;2022-10-16T14:38:41;98503.28;;;16.89;65.70
14790;BME280;7486;51.010;10.366;2022-10-16T14:41:09;98485.84;;;16.98;65.51
14790;BME280;7486;51.010;10.366;2022-10-16T14:43:38;98508.56;;;17.12;64.35
14790;BME280;7486;51.010;10.366;2022-10-16T14:46:18;98512.50;;;16.93;65.23
14790;BME280;7486;51.010;10.366;2022-10-16T14:49:00;98505.31;;;17.10;65.16
14790;BME280;7486;51.010;10.366;2022-10-16T14:51:29;98510.47;;;17.00;65.50
14790;BME280;7486;51.010;10.366;2022-10-16T14:53:56;98504.34;;;17.16;65.50
14790;BME280;7486;51.010;10.366;2022-10-16T14:56:29;98514.19;;;16.99;65.28
14790;BME280;7486;51.010;10.366;2022-10-16T14:58:59;98522.97;;;16.94;65.18
14790;BME280;7486;51.010;10.366;2022-10-16T15:01:26;98518.44;;;16.95;65.65